sensor_id;sensor_type;location;lat;lon;timestamp;P1;durP1;ratioP1;P2;durP2;ratioP2
41217;SDS011;26950;50.960;7.138;2023-04-25T00:00:47;12.67;;;3.27;;
41217;SDS011;26950;50.960;7.138;2023-04-25T00:03:13;11.40;;;3.57;;
41217;SDS011;26950;50.960;7.138;2023-04-25T00:05:41;12.27;;;3.90;;
41217;SDS011;26950;50.960;7.138;2023-04-25T00:08:09;10.33;;;3.77;;
41217;SDS011;26950;50.960;7.138;2023-04-25T00:10:35;10.80;;;3.43;;
41217;SDS011;26950;50.960;7.138;2023-04-25T00:13:02;13.50;;;3.90;;
41217;SDS011;26950;50.960;7.138;2023-04-25T00:15:28;11.17;;;3.77;;
41217;SDS011;26950;50.960;7.138;2023-04-25T00:17:56;9.03;;;3.73;;
41217;SDS011;26950;50.960;7.138;2023-04-25T00:20:22;16.57;;;4.33;;
41217;SDS011;26950;50.960;7.138;2023-04-25T00:22:49;10.93;;;3.43;;
41217;SDS011;26950;50.960;7.138;2023-04-25T00:25:19;12.97;;;3.60;;
41217;SDS011;26950;50.960;7.138;2023-04-25T00:27:45;14.30;;;3.83;;
41217;SDS011;26950;50.960;7.138;2023-04-25T00:30:12;15.20;;;4.23;;
41217;SDS011;26950;50.960;7.138;2023-04-25T00:32:39;10.57;;;3.70;;
41217;SDS011;26950;50.960;7.138;2023-04-25T00:35:06;12.90;;;3.70;;
41217;SDS011;26950;50.960;7.138;2023-04-25T00:37:33;11.80;;;3.73;;
41217;SDS011;26950;50.960;7.138;2023-04-25T00:40:00;16.90;;;4.00;;
41217;SDS011;26950;50.960;7.138;2023-04-25T00:42:29;13.13;;;3.70;;
41217;SDS011;26950;50.960;7.138;2023-04-25T00:44:56;10.03;;;3.60;;
41217;SDS011;26950;50.960;7.138;2023-04-25T00:47:24;11.97;;;3.87;;
41217;SDS011;26950;50.960;7.138;2023-04-25T00:49:51;15.00;;;3.40;;
41217;SDS011;26950;50.960;7.138;2023-04-25T00:52:18;13.10;;;3.50;;
41217;SDS011;26950;50.960;7.138;2023-04-25T00:54:45;13.73;;;3.93;;
41217;SDS011;26950;50.960;7.138;2023-04-25T00:57:12;15.83;;;3.70;;
41217;SDS011;26950;50.960;7.138;2023-04-25T00:59:40;13.27;;;3.90;;
41217;SDS011;26950;50.960;7.138;2023-04-25T01:02:11;13.20;;;4.27;;
41217;SDS011;26950;50.960;7.138;2023-04-25T01:04:38;10.77;;;3.83;;
41217;SDS011;26950;50.960;7.138;2023-04-25T01:07:05;9.43;;;3.63;;
41217;SDS011;26950;50.960;7.138;2023-04-25T01:09:32;12.73;;;4.40;;
41217;SDS011;26950;50.960;7.138;2023-04-25T01:11:58;11.67;;;3.67;;
41217;SDS011;26950;50.960;7.138;2023-04-25T01:14:25;8.53;;;3.47;;
41217;SDS011;26950;50.960;7.138;2023-04-25T01:16:53;13.10;;;3.73;;
41217;SDS011;26950;50.960;7.138;2023-04-25T01:19:19;11.83;;;3.50;;
41217;SDS011;26950;50.960;7.138;2023-04-25T01:21:47;15.90;;;4.30;;
41217;SDS011;26950;50.960;7.138;2023-04-25T01:24:14;18.00;;;4.43;;
41217;SDS011;26950;50.960;7.138;2023-04-25T01:26:41;11.40;;;4.10;;
41217;SDS011;26950;50.960;7.138;2023-04-25T01:29:14;12.10;;;3.93;;
41217;SDS011;26950;50.960;7.138;2023-04-25T01:31:41;15.37;;;3.80;;
41217;SDS011;26950;50.960;7.138;2023-04-25T01:34:08;19.73;;;4.20;;
41217;SDS011;26950;50.960;7.138;2023-04-25T01:36:35;13.70;;;3.77;;
41217;SDS011;26950;50.960;7.138;2023-04-25T01:39:02;14.43;;;4.70;;
41217;SDS011;26950;50.960;7.138;2023-04-25T01:41:29;11.40;;;3.93;;
41217;SDS011;26950;50.960;7.138;2023-04-25T01:43:56;19.27;;;4.50;;
41217;SDS011;26950;50.960;7.138;2023-04-25T01:46:23;12.77;;;4.47;;
41217;SDS011;26950;50.960;7.138;2023-04-25T01:48:50;14.77;;;4.70;;
41217;SDS011;26950;50.960;7.138;2023-04-25T01:51:16;19.53;;;4.23;;
41217;SDS011;26950;50.960;7.138;2023-04-25T01:53:43;13.63;;;4.27;;
41217;SDS011;26950;50.960;7.138;2023-04-25T01:56:11;12.37;;;4.13;;
41217;SDS011;26950;50.960;7.138;2023-04-25T01:58:37;13.50;;;4.17;;
41217;SDS011;26950;50.960;7.138;2023-04-25T02:01:04;18.20;;;5.47;;
41217;SDS011;26950;50.960;7.138;2023-04-25T02:03:30;14.77;;;4.97;;
41217;SDS011;26950;50.960;7.138;2023-04-25T02:05:58;19.83;;;5.10;;
41217;SDS011;26950;50.960;7.138;2023-04-25T02:08:25;23.63;;;5.57;;
41217;SDS011;26950;50.960;7.138;2023-04-25T02:10:51;21.80;;;5.23;;
41217;SDS011;26950;50.960;7.138;2023-04-25T02:13:19;16.27;;;4.43;;
41217;SDS011;26950;50.960;7.138;2023-04-25T02:15:46;17.10;;;5.07;;
41217;SDS011;26950;50.960;7.138;2023-04-25T02:18:12;13.73;;;4.47;;
41217;SDS011;26950;50.960;7.138;2023-04-25T02:20:41;15.33;;;4.20;;
41217;SDS011;26950;50.960;7.138;2023-04-25T02:23:07;13.20;;;4.33;;
41217;SDS011;26950;50.960;7.138;2023-04-25T02:25:34;15.03;;;4.30;;
41217;SDS011;26950;50.960;7.138;2023-04-25T02:28:00;16.53;;;4.50;;
41217;SDS011;26950;50.960;7.138;2023-04-25T02:30:29;10.57;;;4.20;;
41217;SDS011;26950;50.960;7.138;2023-04-25T02:32:55;12.80;;;4.50;;
41217;SDS011;26950;50.960;7.138;2023-04-25T02:35:21;13.27;;;4.67;;
41217;SDS011;26950;50.960;7.138;2023-04-25T02:37:48;17.50;;;4.37;;
41217;SDS011;26950;50.960;7.138;2023-04-25T02:40:14;17.40;;;4.03;;
41217;SDS011;26950;50.960;7.138;2023-04-25T02:42:41;14.00;;;4.70;;
41217;SDS011;26950;50.960;7.138;2023-04-25T02:45:08;13.57;;;4.20;;
41217;SDS011;26950;50.960;7.138;2023-04-25T02:47:36;15.60;;;4.47;;
41217;SDS011;26950;50.960;7.138;2023-04-25T02:50:03;13.87;;;4.00;;
41217;SDS011;26950;50.960;7.138;2023-04-25T02:52:30;17.93;;;4.37;;
41217;SDS011;26950;50.960;7.138;2023-04-25T02:54:57;15.77;;;4.47;;
41217;SDS011;26950;50.960;7.138;2023-04-25T02:57:23;13.77;;;4.10;;
41217;SDS011;26950;50.960;7.138;2023-04-25T02:59:50;17.23;;;4.53;;
41217;SDS011;26950;50.960;7.138;2023-04-25T03:02:16;11.63;;;4.40;;
41217;SDS011;26950;50.960;7.138;2023-04-25T03:04:44;11.67;;;4.13;;
41217;SDS011;26950;50.960;7.138;2023-04-25T03:07:11;15.67;;;4.63;;
41217;SDS011;26950;50.960;7.138;2023-04-25T03:09:37;15.73;;;4.47;;
41217;SDS011;26950;50.960;7.138;2023-04-25T03:12:04;16.10;;;5.07;;
41217;SDS011;26950;50.960;7.138;2023-04-25T03:14:30;13.43;;;4.40;;
41217;SDS011;26950;50.960;7.138;2023-04-25T03:16:57;18.67;;;4.23;;
41217;SDS011;26950;50.960;7.138;2023-04-25T03:19:23;12.07;;;4.63;;
41217;SDS011;26950;50.960;7.138;2023-04-25T03:21:51;18.57;;;5.00;;
41217;SDS011;26950;50.960;7.138;2023-04-25T03:24:18;12.90;;;4.37;;
41217;SDS011;26950;50.960;7.138;2023-04-25T03:26:45;16.27;;;4.23;;
41217;SDS011;26950;50.960;7.138;2023-04-25T03:29:11;12.40;;;4.60;;
41217;SDS011;26950;50.960;7.138;2023-04-25T03:31:38;12.90;;;4.20;;
41217;SDS011;26950;50.960;7.138;2023-04-25T03:34:05;13.47;;;4.27;;
41217;SDS011;26950;50.960;7.138;2023-04-25T03:36:31;13.77;;;4.47;;
41217;SDS011;26950;50.960;7.138;2023-04-25T03:38:59;10.87;;;3.77;;
41217;SDS011;26950;50.960;7.138;2023-04-25T03:41:25;13.10;;;3.43;;
41217;SDS011;26950;50.960;7.138;2023-04-25T03:43:52;16.40;;;4.10;;
41217;SDS011;26950;50.960;7.138;2023-04-25T03:46:20;11.33;;;3.70;;
41217;SDS011;26950;50.960;7.138;2023-04-25T03:48:46;14.17;;;3.70;;
41217;SDS011;26950;50.960;7.138;2023-04-25T03:51:13;11.67;;;3.07;;
41217;SDS011;26950;50.960;7.138;2023-04-25T03:53:39;10.80;;;3.40;;
41217;SDS011;26950;50.960;7.138;2023-04-25T03:56:07;9.30;;;3.37;;
41217;SDS011;26950;50.960;7.138;2023-04-25T03:58:34;9.37;;;3.37;;
41217;SDS011;26950;50.960;7.138;2023-04-25T04:01:00;11.70;;;3.47;;
41217;SDS011;26950;50.960;7.138;2023-04-25T04:03:32;12.80;;;3.50;;
41217;SDS011;26950;50.960;7.138;2023-04-25T04:05:58;13.63;;;3.47;;
41217;SDS011;26950;50.960;7.138;2023-04-25T04:08:25;9.07;;;3.60;;
41217;SDS011;26950;50.960;7.138;2023-04-25T04:10:51;11.13;;;4.10;;
41217;SDS011;26950;50.960;7.138;2023-04-25T04:13:19;9.43;;;3.40;;
41217;SDS011;26950;50.960;7.138;2023-04-25T04:15:45;10.27;;;3.30;;
41217;SDS011;26950;50.960;7.138;2023-04-25T04:18:12;11.80;;;4.00;;
41217;SDS011;26950;50.960;7.138;2023-04-25T04:20:38;9.17;;;3.10;;
41217;SDS011;26950;50.960;7.138;2023-04-25T04:23:05;9.17;;;3.23;;
41217;SDS011;26950;50.960;7.138;2023-04-25T04:25:31;9.33;;;3.10;;
41217;SDS011;26950;50.960;7.138;2023-04-25T04:27:58;10.00;;;3.10;;
41217;SDS011;26950;50.960;7.138;2023-04-25T04:30:27;8.43;;;2.93;;
41217;SDS011;26950;50.960;7.138;2023-04-25T04:32:54;11.80;;;3.43;;
41217;SDS011;26950;50.960;7.138;2023-04-25T04:35:21;8.97;;;3.07;;
41217;SDS011;26950;50.960;7.138;2023-04-25T04:37:48;10.37;;;3.37;;
41217;SDS011;26950;50.960;7.138;2023-04-25T04:40:15;11.17;;;3.30;;
41217;SDS011;26950;50.960;7.138;2023-04-25T04:42:42;11.67;;;3.40;;
41217;SDS011;26950;50.960;7.138;2023-04-25T04:45:10;11.10;;;3.50;;
41217;SDS011;26950;50.960;7.138;2023-04-25T04:47:38;10.07;;;3.53;;
41217;SDS011;26950;50.960;7.138;2023-04-25T04:50:05;12.80;;;4.07;;
41217;SDS011;26950;50.960;7.138;2023-04-25T04:52:33;11.57;;;3.37;;
41217;SDS011;26950;50.960;7.138;2023-04-25T04:55:00;8.10;;;3.50;;
41217;SDS011;26950;50.960;7.138;2023-04-25T04:57:26;10.00;;;3.67;;
41217;SDS011;26950;50.960;7.138;2023-04-25T04:59:53;10.77;;;3.83;;
41217;SDS011;26950;50.960;7.138;2023-04-25T05:02:20;11.03;;;4.23;;
41217;SDS011;26950;50.960;7.138;2023-04-25T05:04:47;13.00;;;3.67;;
41217;SDS011;26950;50.960;7.138;2023-04-25T05:07:15;14.27;;;4.30;;
41217;SDS011;26950;50.960;7.138;2023-04-25T05:09:41;10.67;;;4.40;;
41217;SDS011;26950;50.960;7.138;2023-04-25T05:12:08;13.37;;;3.97;;
41217;SDS011;26950;50.960;7.138;2023-04-25T05:14:34;13.27;;;4.20;;
41217;SDS011;26950;50.960;7.138;2023-04-25T05:17:01;18.03;;;4.47;;
41217;SDS011;26950;50.960;7.138;2023-04-25T05:19:29;12.63;;;4.47;;
41217;SDS011;26950;50.960;7.138;2023-04-25T05:21:57;20.50;;;4.53;;
41217;SDS011;26950;50.960;7.138;2023-04-25T05:24:24;15.63;;;4.33;;
41217;SDS011;26950;50.960;7.138;2023-04-25T05:26:50;14.00;;;4.97;;
41217;SDS011;26950;50.960;7.138;2023-04-25T05:29:16;15.77;;;4.70;;
41217;SDS011;26950;50.960;7.138;2023-04-25T05:31:43;15.73;;;4.50;;
41217;SDS011;26950;50.960;7.138;2023-04-25T05:34:10;18.97;;;5.30;;
41217;SDS011;26950;50.960;7.138;2023-04-25T05:36:37;11.80;;;4.63;;
41217;SDS011;26950;50.960;7.138;2023-04-25T05:39:04;17.10;;;4.73;;
41217;SDS011;26950;50.960;7.138;2023-04-25T05:41:31;16.90;;;5.53;;
41217;SDS011;26950;50.960;7.138;2023-04-25T05:43:57;17.10;;;5.77;;
41217;SDS011;26950;50.960;7.138;2023-04-25T05:46:24;17.20;;;5.50;;
41217;SDS011;26950;50.960;7.138;2023-04-25T05:48:50;20.10;;;5.80;;
41217;SDS011;26950;50.960;7.138;2023-04-25T05:51:17;18.13;;;5.50;;
41217;SDS011;26950;50.960;7.138;2023-04-25T05:53:43;22.07;;;5.60;;
41217;SDS011;26950;50.960;7.138;2023-04-25T05:56:11;18.67;;;5.20;;
41217;SDS011;26950;50.960;7.138;2023-04-25T05:58:38;15.50;;;5.07;;
41217;SDS011;26950;50.960;7.138;2023-04-25T06:01:05;19.40;;;4.90;;
41217;SDS011;26950;50.960;7.138;2023-04-25T06:03:31;17.87;;;4.73;;
41217;SDS011;26950;50.960;7.138;2023-04-25T06:05:58;18.23;;;4.53;;
41217;SDS011;26950;50.960;7.138;2023-04-25T06:08:24;21.67;;;5.03;;
41217;SDS011;26950;50.960;7.138;2023-04-25T06:10:51;25.60;;;5.30;;
41217;SDS011;26950;50.960;7.138;2023-04-25T06:13:19;16.53;;;4.67;;
41217;SDS011;26950;50.960;7.138;2023-04-25T06:15:45;23.90;;;4.90;;
41217;SDS011;26950;50.960;7.138;2023-04-25T06:18:12;24.70;;;5.23;;
41217;SDS011;26950;50.960;7.138;2023-04-25T06:20:38;20.77;;;5.40;;
41217;SDS011;26950;50.960;7.138;2023-04-25T06:23:04;19.27;;;5.00;;
41217;SDS011;26950;50.960;7.138;2023-04-25T06:25:31;19.47;;;4.80;;
41217;SDS011;26950;50.960;7.138;2023-04-25T06:27:57;21.07;;;4.67;;
41217;SDS011;26950;50.960;7.138;2023-04-25T06:30:26;17.87;;;4.27;;
41217;SDS011;26950;50.960;7.138;2023-04-25T06:32:52;17.63;;;4.33;;
41217;SDS011;26950;50.960;7.138;2023-04-25T06:35:19;22.40;;;4.57;;
41217;SDS011;26950;50.960;7.138;2023-04-25T06:37:45;18.40;;;4.93;;
41217;SDS011;26950;50.960;7.138;2023-04-25T06:40:12;19.70;;;4.73;;
41217;SDS011;26950;50.960;7.138;2023-04-25T06:42:39;16.97;;;4.97;;
41217;SDS011;26950;50.960;7.138;2023-04-25T06:45:06;23.27;;;4.60;;
41217;SDS011;26950;50.960;7.138;2023-04-25T06:47:35;17.77;;;4.60;;
41217;SDS011;26950;50.960;7.138;2023-04-25T06:50:01;20.60;;;4.87;;
41217;SDS011;26950;50.960;7.138;2023-04-25T06:52:28;17.13;;;4.47;;
41217;SDS011;26950;50.960;7.138;2023-04-25T06:54:55;17.50;;;4.83;;
41217;SDS011;26950;50.960;7.138;2023-04-25T06:57:21;17.47;;;4.40;;
41217;SDS011;26950;50.960;7.138;2023-04-25T06:59:48;19.90;;;4.57;;
41217;SDS011;26950;50.960;7.138;2023-04-25T07:02:14;22.23;;;5.03;;
41217;SDS011;26950;50.960;7.138;2023-04-25T07:04:42;16.03;;;4.30;;
41217;SDS011;26950;50.960;7.138;2023-04-25T07:07:10;17.63;;;4.17;;
41217;SDS011;26950;50.960;7.138;2023-04-25T07:09:36;14.90;;;3.93;;
41217;SDS011;26950;50.960;7.138;2023-04-25T07:12:03;15.77;;;4.00;;
41217;SDS011;26950;50.960;7.138;2023-04-25T07:14:30;17.60;;;3.87;;
41217;SDS011;26950;50.960;7.138;2023-04-25T07:16:56;17.53;;;4.13;;
41217;SDS011;26950;50.960;7.138;2023-04-25T07:19:23;17.40;;;3.83;;
41217;SDS011;26950;50.960;7.138;2023-04-25T07:21:52;21.00;;;3.63;;
41217;SDS011;26950;50.960;7.138;2023-04-25T07:24:19;18.23;;;3.57;;
41217;SDS011;26950;50.960;7.138;2023-04-25T07:26:46;18.73;;;3.90;;
41217;SDS011;26950;50.960;7.138;2023-04-25T07:29:12;13.87;;;3.83;;
41217;SDS011;26950;50.960;7.138;2023-04-25T07:31:39;11.97;;;3.20;;
41217;SDS011;26950;50.960;7.138;2023-04-25T07:34:05;14.63;;;3.40;;
41217;SDS011;26950;50.960;7.138;2023-04-25T07:36:32;16.90;;;3.60;;
41217;SDS011;26950;50.960;7.138;2023-04-25T07:38:59;22.10;;;4.10;;
41217;SDS011;26950;50.960;7.138;2023-04-25T07:41:26;17.17;;;3.50;;
41217;SDS011;26950;50.960;7.138;2023-04-25T07:43:52;17.43;;;3.60;;
41217;SDS011;26950;50.960;7.138;2023-04-25T07:46:19;16.13;;;3.70;;
41217;SDS011;26950;50.960;7.138;2023-04-25T07:48:45;14.50;;;3.43;;
41217;SDS011;26950;50.960;7.138;2023-04-25T07:51:11;22.03;;;3.73;;
41217;SDS011;26950;50.960;7.138;2023-04-25T07:53:38;10.93;;;3.60;;
41217;SDS011;26950;50.960;7.138;2023-04-25T07:56:07;19.73;;;4.00;;
41217;SDS011;26950;50.960;7.138;2023-04-25T07:58:34;19.60;;;4.10;;
41217;SDS011;26950;50.960;7.138;2023-04-25T08:01:00;16.30;;;4.47;;
41217;SDS011;26950;50.960;7.138;2023-04-25T08:03:27;18.47;;;4.07;;
41217;SDS011;26950;50.960;7.138;2023-04-25T08:05:53;16.57;;;3.80;;
41217;SDS011;26950;50.960;7.138;2023-04-25T08:08:20;21.30;;;4.93;;
41217;SDS011;26950;50.960;7.138;2023-04-25T08:10:47;18.67;;;4.27;;
41217;SDS011;26950;50.960;7.138;2023-04-25T08:13:15;17.60;;;3.77;;
41217;SDS011;26950;50.960;7.138;2023-04-25T08:15:41;17.07;;;4.10;;
41217;SDS011;26950;50.960;7.138;2023-04-25T08:18:08;16.20;;;3.63;;
41217;SDS011;26950;50.960;7.138;2023-04-25T08:20:34;18.43;;;4.00;;
41217;SDS011;26950;50.960;7.138;2023-04-25T08:23:01;14.37;;;3.47;;
41217;SDS011;26950;50.960;7.138;2023-04-25T08:25:27;12.67;;;3.40;;
41217;SDS011;26950;50.960;7.138;2023-04-25T08:27:54;11.00;;;3.20;;
41217;SDS011;26950;50.960;7.138;2023-04-25T08:30:22;10.73;;;3.07;;
41217;SDS011;26950;50.960;7.138;2023-04-25T08:32:48;10.90;;;3.23;;
41217;SDS011;26950;50.960;7.138;2023-04-25T08:35:15;12.90;;;2.97;;
41217;SDS011;26950;50.960;7.138;2023-04-25T08:37:42;11.13;;;2.87;;
41217;SDS011;26950;50.960;7.138;2023-04-25T08:40:09;14.10;;;3.10;;
41217;SDS011;26950;50.960;7.138;2023-04-25T08:42:38;9.40;;;2.60;;
41217;SDS011;26950;50.960;7.138;2023-04-25T08:45:07;12.07;;;3.03;;
41217;SDS011;26950;50.960;7.138;2023-04-25T08:47:37;12.00;;;3.20;;
41217;SDS011;26950;50.960;7.138;2023-04-25T08:50:05;12.17;;;2.73;;
41217;SDS011;26950;50.960;7.138;2023-04-25T08:52:34;11.57;;;2.93;;
41217;SDS011;26950;50.960;7.138;2023-04-25T08:55:03;14.17;;;2.80;;
41217;SDS011;26950;50.960;7.138;2023-04-25T08:57:33;10.67;;;3.27;;
41217;SDS011;26950;50.960;7.138;2023-04-25T09:00:01;15.67;;;3.50;;
41217;SDS011;26950;50.960;7.138;2023-04-25T09:02:28;11.97;;;3.23;;
41217;SDS011;26950;50.960;7.138;2023-04-25T09:04:56;14.80;;;3.07;;
41217;SDS011;26950;50.960;7.138;2023-04-25T09:07:23;10.27;;;2.93;;
41217;SDS011;26950;50.960;7.138;2023-04-25T09:09:50;17.30;;;3.30;;
41217;SDS011;26950;50.960;7.138;2023-04-25T09:12:17;11.63;;;3.13;;
41217;SDS011;26950;50.960;7.138;2023-04-25T09:14:45;8.43;;;2.63;;
41217;SDS011;26950;50.960;7.138;2023-04-25T09:17:27;16.00;;;3.30;;
41217;SDS011;26950;50.960;7.138;2023-04-25T09:19:54;14.20;;;3.37;;
41217;SDS011;26950;50.960;7.138;2023-04-25T09:22:31;13.67;;;3.30;;
41217;SDS011;26950;50.960;7.138;2023-04-25T09:24:57;15.00;;;3.27;;
41217;SDS011;26950;50.960;7.138;2023-04-25T09:27:27;17.83;;;3.40;;
41217;SDS011;26950;50.960;7.138;2023-04-25T09:29:56;12.07;;;3.10;;
41217;SDS011;26950;50.960;7.138;2023-04-25T09:32:23;14.60;;;3.03;;
41217;SDS011;26950;50.960;7.138;2023-04-25T09:34:51;13.20;;;2.80;;
41217;SDS011;26950;50.960;7.138;2023-04-25T09:37:20;12.13;;;3.40;;
41217;SDS011;26950;50.960;7.138;2023-04-25T09:39:48;14.00;;;2.80;;
41217;SDS011;26950;50.960;7.138;2023-04-25T09:42:16;13.93;;;3.00;;
41217;SDS011;26950;50.960;7.138;2023-04-25T09:44:43;10.37;;;2.50;;
41217;SDS011;26950;50.960;7.138;2023-04-25T09:47:10;9.70;;;2.37;;
41217;SDS011;26950;50.960;7.138;2023-04-25T09:49:39;11.53;;;2.50;;
41217;SDS011;26950;50.960;7.138;2023-04-25T09:52:07;12.03;;;2.77;;
41217;SDS011;26950;50.960;7.138;2023-04-25T09:54:35;11.27;;;2.40;;
41217;SDS011;26950;50.960;7.138;2023-04-25T09:57:05;18.27;;;2.93;;
41217;SDS011;26950;50.960;7.138;2023-04-25T09:59:38;16.70;;;3.20;;
41217;SDS011;26950;50.960;7.138;2023-04-25T10:02:06;10.13;;;2.30;;
41217;SDS011;26950;50.960;7.138;2023-04-25T10:04:34;11.63;;;2.53;;
41217;SDS011;26950;50.960;7.138;2023-04-25T10:07:01;13.00;;;2.40;;
41217;SDS011;26950;50.960;7.138;2023-04-25T10:09:31;12.03;;;2.97;;
41217;SDS011;26950;50.960;7.138;2023-04-25T10:12:00;13.57;;;2.80;;
41217;SDS011;26950;50.960;7.138;2023-04-25T10:14:28;12.20;;;2.53;;
41217;SDS011;26950;50.960;7.138;2023-04-25T10:16:55;9.83;;;2.37;;
41217;SDS011;26950;50.960;7.138;2023-04-25T10:19:26;10.20;;;2.10;;
41217;SDS011;26950;50.960;7.138;2023-04-25T10:21:55;13.33;;;2.97;;
41217;SDS011;26950;50.960;7.138;2023-04-25T10:24:28;11.10;;;2.40;;
41217;SDS011;26950;50.960;7.138;2023-04-25T10:26:55;11.37;;;2.80;;
41217;SDS011;26950;50.960;7.138;2023-04-25T10:29:23;10.33;;;2.47;;
41217;SDS011;26950;50.960;7.138;2023-04-25T10:31:51;11.20;;;2.60;;
41217;SDS011;26950;50.960;7.138;2023-04-25T10:34:18;10.70;;;1.83;;
41217;SDS011;26950;50.960;7.138;2023-04-25T10:36:49;9.63;;;2.00;;
41217;SDS011;26950;50.960;7.138;2023-04-25T10:39:21;8.13;;;2.17;;
41217;SDS011;26950;50.960;7.138;2023-04-25T10:41:52;10.17;;;2.37;;
41217;SDS011;26950;50.960;7.138;2023-04-25T10:44:20;8.23;;;1.80;;
41217;SDS011;26950;50.960;7.138;2023-04-25T10:46:47;8.37;;;2.00;;
41217;SDS011;26950;50.960;7.138;2023-04-25T10:49:28;6.50;;;1.97;;
41217;SDS011;26950;50.960;7.138;2023-04-25T10:52:13;8.40;;;1.77;;
41217;SDS011;26950;50.960;7.138;2023-04-25T10:54:41;9.10;;;2.00;;
41217;SDS011;26950;50.960;7.138;2023-04-25T11:00:00;8.23;;;2.07;;
41217;SDS011;26950;50.960;7.138;2023-04-25T11:02:33;6.70;;;1.80;;
41217;SDS011;26950;50.960;7.138;2023-04-25T11:05:03;9.77;;;1.87;;
41217;SDS011;26950;50.960;7.138;2023-04-25T11:07:33;12.40;;;2.00;;
41217;SDS011;26950;50.960;7.138;2023-04-25T11:10:10;9.80;;;2.30;;
41217;SDS011;26950;50.960;7.138;2023-04-25T11:12:37;10.80;;;2.00;;
41217;SDS011;26950;50.960;7.138;2023-04-25T11:15:04;6.27;;;2.03;;
41217;SDS011;26950;50.960;7.138;2023-04-25T11:17:33;8.37;;;1.83;;
41217;SDS011;26950;50.960;7.138;2023-04-25T11:20:00;12.17;;;2.40;;
41217;SDS011;26950;50.960;7.138;2023-04-25T11:22:29;10.37;;;2.30;;
41217;SDS011;26950;50.960;7.138;2023-04-25T11:24:55;7.87;;;1.77;;
41217;SDS011;26950;50.960;7.138;2023-04-25T11:27:22;9.43;;;2.10;;
41217;SDS011;26950;50.960;7.138;2023-04-25T11:29:49;6.20;;;1.73;;
41217;SDS011;26950;50.960;7.138;2023-04-25T11:32:17;7.87;;;1.73;;
41217;SDS011;26950;50.960;7.138;2023-04-25T11:34:46;12.80;;;2.53;;
41217;SDS011;26950;50.960;7.138;2023-04-25T11:37:13;9.97;;;1.87;;
41217;SDS011;26950;50.960;7.138;2023-04-25T11:39:42;6.70;;;1.60;;
41217;SDS011;26950;50.960;7.138;2023-04-25T11:42:11;8.03;;;1.80;;
41217;SDS011;26950;50.960;7.138;2023-04-25T11:44:37;7.03;;;1.77;;
41217;SDS011;26950;50.960;7.138;2023-04-25T11:47:05;7.57;;;1.70;;
41217;SDS011;26950;50.960;7.138;2023-04-25T11:49:31;7.83;;;2.10;;
41217;SDS011;26950;50.960;7.138;2023-04-25T11:51:59;6.43;;;1.77;;
41217;SDS011;26950;50.960;7.138;2023-04-25T11:54:26;6.73;;;1.70;;
41217;SDS011;26950;50.960;7.138;2023-04-25T11:56:52;5.73;;;1.80;;
41217;SDS011;26950;50.960;7.138;2023-04-25T11:59:22;5.97;;;1.73;;
41217;SDS011;26950;50.960;7.138;2023-04-25T12:01:50;8.97;;;1.90;;
41217;SDS011;26950;50.960;7.138;2023-04-25T12:04:17;6.83;;;1.80;;
41217;SDS011;26950;50.960;7.138;2023-04-25T12:06:45;7.57;;;1.90;;
41217;SDS011;26950;50.960;7.138;2023-04-25T12:09:15;6.87;;;1.37;;
41217;SDS011;26950;50.960;7.138;2023-04-25T12:11:44;4.87;;;1.60;;
41217;SDS011;26950;50.960;7.138;2023-04-25T12:14:11;7.30;;;1.27;;
41217;SDS011;26950;50.960;7.138;2023-04-25T12:16:41;6.57;;;1.40;;
41217;SDS011;26950;50.960;7.138;2023-04-25T12:19:08;5.80;;;1.43;;
41217;SDS011;26950;50.960;7.138;2023-04-25T12:21:35;6.07;;;1.33;;
41217;SDS011;26950;50.960;7.138;2023-04-25T12:24:11;6.23;;;1.23;;
41217;SDS011;26950;50.960;7.138;2023-04-25T12:26:47;4.70;;;1.53;;
41217;SDS011;26950;50.960;7.138;2023-04-25T12:29:17;5.57;;;1.60;;
41217;SDS011;26950;50.960;7.138;2023-04-25T12:31:45;6.63;;;1.30;;
41217;SDS011;26950;50.960;7.138;2023-04-25T12:34:11;4.57;;;1.30;;
41217;SDS011;26950;50.960;7.138;2023-04-25T12:36:38;4.97;;;1.43;;
41217;SDS011;26950;50.960;7.138;2023-04-25T12:39:04;5.27;;;1.70;;
41217;SDS011;26950;50.960;7.138;2023-04-25T12:41:31;11.73;;;2.23;;
41217;SDS011;26950;50.960;7.138;2023-04-25T12:43:59;6.33;;;1.47;;
41217;SDS011;26950;50.960;7.138;2023-04-25T12:46:26;3.67;;;1.50;;
41217;SDS011;26950;50.960;7.138;2023-04-25T12:48:52;3.90;;;1.53;;
41217;SDS011;26950;50.960;7.138;2023-04-25T12:51:20;4.50;;;1.80;;
41217;SDS011;26950;50.960;7.138;2023-04-25T12:53:49;5.97;;;1.60;;
41217;SDS011;26950;50.960;7.138;2023-04-25T12:56:16;5.77;;;1.43;;
41217;SDS011;26950;50.960;7.138;2023-04-25T12:58:43;3.70;;;1.30;;
41217;SDS011;26950;50.960;7.138;2023-04-25T13:01:11;6.20;;;1.33;;
41217;SDS011;26950;50.960;7.138;2023-04-25T13:03:38;8.97;;;1.73;;
41217;SDS011;26950;50.960;7.138;2023-04-25T13:06:05;3.97;;;1.40;;
41217;SDS011;26950;50.960;7.138;2023-04-25T13:08:32;6.13;;;1.60;;
41217;SDS011;26950;50.960;7.138;2023-04-25T13:10:58;7.03;;;1.53;;
41217;SDS011;26950;50.960;7.138;2023-04-25T13:13:25;5.80;;;1.83;;
41217;SDS011;26950;50.960;7.138;2023-04-25T13:15:52;8.27;;;1.60;;
41217;SDS011;26950;50.960;7.138;2023-04-25T13:18:20;6.23;;;1.67;;
41217;SDS011;26950;50.960;7.138;2023-04-25T13:20:46;8.43;;;1.80;;
41217;SDS011;26950;50.960;7.138;2023-04-25T13:23:13;5.43;;;1.40;;
41217;SDS011;26950;50.960;7.138;2023-04-25T13:25:39;6.20;;;1.60;;
41217;SDS011;26950;50.960;7.138;2023-04-25T13:28:06;7.07;;;1.57;;
41217;SDS011;26950;50.960;7.138;2023-04-25T13:30:32;7.83;;;1.50;;
41217;SDS011;26950;50.960;7.138;2023-04-25T13:32:59;3.70;;;1.40;;
41217;SDS011;26950;50.960;7.138;2023-04-25T13:35:29;4.47;;;1.30;;
41217;SDS011;26950;50.960;7.138;2023-04-25T13:37:56;10.33;;;1.83;;
41217;SDS011;26950;50.960;7.138;2023-04-25T13:40:23;5.73;;;1.60;;
41217;SDS011;26950;50.960;7.138;2023-04-25T13:42:49;6.53;;;1.80;;
41217;SDS011;26950;50.960;7.138;2023-04-25T13:45:16;8.30;;;2.00;;
41217;SDS011;26950;50.960;7.138;2023-04-25T13:47:42;8.07;;;2.10;;
41217;SDS011;26950;50.960;7.138;2023-04-25T13:50:09;6.10;;;1.70;;
41217;SDS011;26950;50.960;7.138;2023-04-25T13:52:37;4.60;;;1.60;;
41217;SDS011;26950;50.960;7.138;2023-04-25T13:55:04;6.00;;;1.80;;
41217;SDS011;26950;50.960;7.138;2023-04-25T13:57:32;5.00;;;1.67;;
41217;SDS011;26950;50.960;7.138;2023-04-25T13:59:59;6.90;;;2.00;;
41217;SDS011;26950;50.960;7.138;2023-04-25T14:02:29;8.23;;;2.13;;
41217;SDS011;26950;50.960;7.138;2023-04-25T14:04:56;8.97;;;1.90;;
41217;SDS011;26950;50.960;7.138;2023-04-25T14:07:22;10.00;;;2.10;;
41217;SDS011;26950;50.960;7.138;2023-04-25T14:09:50;8.03;;;2.00;;
41217;SDS011;26950;50.960;7.138;2023-04-25T14:12:17;6.93;;;1.90;;
41217;SDS011;26950;50.960;7.138;2023-04-25T14:14:43;5.33;;;1.67;;
41217;SDS011;26950;50.960;7.138;2023-04-25T14:17:10;7.13;;;1.87;;
41217;SDS011;26950;50.960;7.138;2023-04-25T14:19:37;6.63;;;2.00;;
41217;SDS011;26950;50.960;7.138;2023-04-25T14:22:08;7.27;;;1.93;;
41217;SDS011;26950;50.960;7.138;2023-04-25T14:24:34;7.10;;;2.40;;
41217;SDS011;26950;50.960;7.138;2023-04-25T14:27:02;5.23;;;1.93;;
41217;SDS011;26950;50.960;7.138;2023-04-25T14:29:29;4.77;;;2.10;;
41217;SDS011;26950;50.960;7.138;2023-04-25T14:31:55;9.50;;;2.17;;
41217;SDS011;26950;50.960;7.138;2023-04-25T14:34:23;6.10;;;1.90;;
41217;SDS011;26950;50.960;7.138;2023-04-25T14:36:50;12.50;;;2.03;;
41217;SDS011;26950;50.960;7.138;2023-04-25T14:39:17;8.40;;;2.10;;
41217;SDS011;26950;50.960;7.138;2023-04-25T14:41:43;7.30;;;1.80;;